메인 페이지
METAR-TAF:

METAR-TAF

공항 :

Charles M. Schulz - Sonoma County Airport

Santa Rosa, 캘리포니아, 미국

위도: 38-30-00N, 경도: 122-49-00W, 고도: 38m

현재 날씨관측

예보는 35분 전, 18:53시(UTC)에 발표되었습니다.
여러 방향의 바람 3kt
온도 18°C
습도 68%
기압 1014 hPa
시정: 14.5km
맑음

METAR: KSTS 131853Z VRB03KT 9SM CLR 18/12 A2995 RMK AO2 SLP136 T01780117

시각: 12:28 (19:28 UTC)

예보

예보는 1 시간 55분 전, 17:33시(UTC)에 발표되었습니다.
예보 대상 시간: 13일 18시부터 14일 18시까지 (UTC)
남남서12kt
시정: 10km
맑음
14일 0500시부터 (UTC)
남남동6kt
시정: 10km
고도 1500ft 상공 구름 조금
14일 1200시부터 (UTC)
여러 방향의 바람 4kt
시정: 9.7km
고도 300ft 상공 구름 조금
고도 700ft 상공 구름 보통
박무
14일 1700시부터 (UTC)
남남서4kt
시정: 10km
맑음

TAF: KSTS 131733Z 1318/1418 20012KT P6SM SKC FM140500 16006KT P6SM FEW015 FM141200 VRB04KT 6SM BR FEW003 SCT007 FM141700 21004KT P6SM SKC

4,000개 이상의 공항 관측 자료 및 예보 (METAR 및 TAF 보고).

지도상에서 검색 가능한 기상관측소가 노란 점과 빨간 점으로 표시되어 있습니다.

기상관측소 명을 보려면 표시 위로 마우스를 이동하세요.

날씨 관측과 예보를 보려면 클릭하세요.

지도 변경 : 확대하려면 엑스 표시가 있는 녹색 버튼, 축소하려면 빼기 표시가 있는 녹색 버튼, 다음 페이지의 지도를 보려면 녹색 화살표를 클릭하세요.


METAR-TAF: